Nearby METAR Reports

 

KSBP - San Luis Obispo, California, USA
Distance from station: S 14mi, 22km
Updated: Mon, 22-Jul-2024 6:56am PDT
Haze, Overcast
Haze, Overcast
 Wind from WSW
Wind: WSW 3 mph , 6 km/h
Temperature: 57°F , 14°C
Dew Point: 54°F , 12°C
Humidity: 88%
Barometer: 1012.2 hPa
Summary: Haze
Clouds: Overcast
Visibility: 3 miles , 5 km
Cloud details: Overcast 300 ft
2024/07/22 13:56 KSBP 221356Z 25003KT 3SM HZ OVC003 14/12 A2989 RMK AO2 SLP121 T01440117
KPRB - Paso Robles, California, USA
Distance from station: N 16mi, 26km
Updated: Mon, 22-Jul-2024 6:53am PDT
Clear
Clear
 Wind from NW
Wind: NW 3 mph , 6 km/h
Temperature: 55°F , 13°C
Dew Point: 52°F , 11°C
Humidity: 88%
Barometer: 1012.2 hPa
Clouds: Clear
Visibility: 10 miles , 16 km
2024/07/22 13:53 KPRB 221353Z AUTO 31003KT 10SM CLR 13/11 A2989 RMK AO2 SLP115 T01330111
 
KSMX - Santa Maria, California, USA
Distance from station: SSE 38mi, 62km
Updated: Mon, 22-Jul-2024 6:51am PDT
Mist, Overcast
Mist, Overcast
 Wind from S
Wind: S 3 mph , 6 km/h
Temperature: 55°F , 13°C
Dew Point: 54°F , 12°C
Humidity: 94%
Barometer: 1012.5 hPa
Summary: Mist
Clouds: Overcast
Visibility: 6 miles , 10 km
Cloud details: Overcast 600 ft
2024/07/22 13:51 KSMX 221351Z 19003KT 6SM BR OVC006 13/12 A2990 RMK AO2 SLP127 T01280122 $
KVBG - Vandenberg Afb, California, USA
Distance from station: S 48mi, 78km
Updated: Mon, 22-Jul-2024 6:55am PDT
Mist, Overcast
Mist, Overcast
 Wind from calm
Wind: Calm
Temperature: 54°F , 12°C
Dew Point: 54°F , 12°C
Humidity: 100%
Barometer: 1012.9 hPa
Summary: Mist
Clouds: Overcast
Visibility: 1 1/8 miles , 1.8 km
Cloud details: Overcast 100 ft
2024/07/22 13:55 KVBG 221355Z AUTO 00000KT 1 1/8SM BR OVC001 12/12 A2991 RMK AO2 VIS 3/8 RWY12/30 VIS 3/8 RWY30 SLP131 T01170115 TSNO $